Time;durP1;ratioP1;P1;durP2;ratioP2;P2;SDS_P1;SDS_P2;PMS_P1;PMS_P2;Temp;Humidity;BMP_temperature;BMP_pressure;BME280_temperature;BME280_humidity;BME280_pressure;Samples;Min_cycle;Max_cycle;Signal;HPM_P1;HPM_P2
2021/11/15 00:00:28;;;;;;;144.97;70.95;;;;;;;6.86;100.00;101352.70;1684722;85;21064;-85
2021/11/15 00:02:55;;;;;;;138.12;68.20;;;;;;;6.98;100.00;101349.19;1674014;83;21619;-86
2021/11/15 00:05:23;;;;;;;149.95;69.67;;;;;;;6.91;100.00;101343.08;1650564;86;21101;-86
2021/11/15 00:07:51;;;;;;;136.22;67.90;;;;;;;6.81;100.00;101349.23;1651262;86;21066;-86
2021/11/15 00:10:19;;;;;;;139.43;68.25;;;;;;;6.68;100.00;101353.61;1649456;86;21903;-86
2021/11/15 00:12:51;;;;;;;129.00;61.58;;;;;;;6.54;100.00;101355.37;1649200;86;21627;-86
2021/11/15 00:15:17;;;;;;;133.55;65.55;;;;;;;6.36;100.00;101350.16;1650020;86;21027;-86
2021/11/15 00:17:44;;;;;;;132.78;63.87;;;;;;;6.18;100.00;101337.93;1650093;87;21587;-86
2021/11/15 00:20:11;;;;;;;113.70;56.68;;;;;;;6.00;100.00;101357.95;1649634;86;21054;-86
2021/11/15 00:22:37;;;;;;;112.50;56.63;;;;;;;5.84;100.00;101352.23;1649839;86;21094;-86
2021/11/15 00:25:06;;;;;;;134.70;65.80;;;;;;;5.71;100.00;101349.18;1650075;87;21088;-86
2021/11/15 00:27:33;;;;;;;135.52;66.02;;;;;;;5.55;100.00;101362.19;1682664;80;21123;-85
2021/11/15 00:30:00;;;;;;;131.93;64.40;;;;;;;5.42;100.00;101361.70;1684950;85;21062;-84
2021/11/15 00:32:27;;;;;;;134.25;64.12;;;;;;;5.25;100.00;101357.28;1686536;84;20985;-87
2021/11/15 00:34:54;;;;;;;84.35;42.70;;;;;;;5.10;100.00;101357.20;1686802;85;21290;-86
2021/11/15 00:37:22;;;;;;;134.80;66.33;;;;;;;4.98;100.00;101344.09;1685597;84;21034;-86
2021/11/15 00:39:50;;;;;;;145.47;67.37;;;;;;;4.94;100.00;101341.02;1684752;85;21149;-87
2021/11/15 00:42:16;;;;;;;133.03;61.40;;;;;;;4.87;100.00;101347.07;1684953;85;21300;-85
2021/11/15 00:44:43;;;;;;;137.10;64.35;;;;;;;4.79;100.00;101358.78;1684642;84;21125;-85
2021/11/15 00:47:10;;;;;;;142.50;67.40;;;;;;;4.77;100.00;101367.89;1684590;85;21152;-85
2021/11/15 00:49:36;;;;;;;143.60;68.35;;;;;;;4.74;100.00;101365.68;1684565;85;20986;-86
2021/11/15 00:52:04;;;;;;;137.70;66.47;;;;;;;4.69;100.00;101366.95;1684837;85;21150;-86
2021/11/15 00:54:31;;;;;;;142.15;67.22;;;;;;;4.59;100.00;101366.02;1684275;84;21071;-85
2021/11/15 00:56:57;;;;;;;139.80;66.90;;;;;;;4.50;100.00;101365.95;1684420;85;21338;-86
2021/11/15 00:59:23;;;;;;;140.05;68.37;;;;;;;4.40;100.00;101365.02;1684599;84;21145;-84
2021/11/15 01:04:53;;;;;;;130.82;59.40;;;;;;;4.25;100.00;101377.91;1710451;78;76671;-82
2021/11/15 01:07:21;;;;;;;134.67;65.15;;;;;;;4.20;100.00;101384.83;1741874;81;21061;-82
2021/11/15 01:09:47;;;;;;;138.30;66.25;;;;;;;4.14;100.00;101385.66;1731436;81;21045;-82
2021/11/15 01:12:13;;;;;;;135.93;64.65;;;;;;;4.13;100.00;101390.85;1764991;81;21110;-82
2021/11/15 01:14:40;;;;;;;130.95;63.55;;;;;;;4.09;100.00;101391.67;1764825;81;21038;-83
2021/11/15 01:17:07;;;;;;;124.67;58.40;;;;;;;4.07;100.00;101389.08;1763638;81;21033;-78
2021/11/15 01:19:33;;;;;;;142.87;66.17;;;;;;;4.06;100.00;101387.75;1734109;82;21047;-79
2021/11/15 01:22:00;;;;;;;143.40;65.28;;;;;;;4.06;100.00;101389.05;1734384;82;21108;-79
2021/11/15 01:24:26;;;;;;;137.88;65.00;;;;;;;4.03;100.00;101389.90;1742936;81;21476;-79
2021/11/15 01:26:52;;;;;;;142.25;67.58;;;;;;;3.99;100.00;101387.67;1764497;81;21097;-78
2021/11/15 01:29:19;;;;;;;143.40;67.37;;;;;;;3.98;100.00;101389.84;1764617;81;21084;-80
2021/11/15 01:31:45;;;;;;;144.70;67.15;;;;;;;3.99;100.00;101395.93;1764671;81;21897;-80
2021/11/15 01:34:11;;;;;;;139.25;65.97;;;;;;;3.98;100.00;101392.45;1764850;81;21088;-81
2021/11/15 01:36:38;;;;;;;137.47;64.55;;;;;;;3.95;100.00;101393.70;1764647;81;21496;-81
2021/11/15 01:39:05;;;;;;;138.40;66.30;;;;;;;3.96;100.00;101394.17;1764483;81;21058;-83
2021/11/15 01:41:31;;;;;;;144.22;65.78;;;;;;;3.96;100.00;101394.17;1764830;81;21042;-80
2021/11/15 01:43:58;;;;;;;148.13;67.30;;;;;;;3.98;100.00;101391.59;1764469;81;21042;-81
2021/11/15 01:46:25;;;;;;;141.57;66.20;;;;;;;3.97;100.00;101386.78;1764556;81;21105;-80
2021/11/15 01:48:53;;;;;;;135.15;62.73;;;;;;;3.95;100.00;101391.54;1764274;81;21139;-78
2021/11/15 01:51:19;;;;;;;130.60;62.05;;;;;;;3.99;100.00;101382.90;1764309;81;21587;-79
2021/11/15 01:53:46;;;;;;;106.78;50.08;;;;;;;4.01;100.00;101381.63;1764566;81;21612;-76
2021/11/15 01:56:12;;;;;;;129.42;63.48;;;;;;;4.03;100.00;101379.91;1764579;81;21623;-76
2021/11/15 01:58:39;;;;;;;131.70;62.05;;;;;;;4.03;100.00;101382.08;1764459;81;21073;-76
2021/11/15 02:01:05;;;;;;;125.42;62.65;;;;;;;4.03;100.00;101377.30;1764647;81;21091;-76
2021/11/15 02:03:33;;;;;;;105.25;50.60;;;;;;;4.01;100.00;101377.27;1763388;81;21070;-77
2021/11/15 02:06:01;;;;;;;129.12;62.67;;;;;;;4.02;100.00;101372.48;1756410;80;21041;-76
2021/11/15 02:08:27;;;;;;;136.10;63.87;;;;;;;4.06;100.00;101374.71;1739594;82;21049;-76
2021/11/15 02:10:54;;;;;;;129.42;61.33;;;;;;;4.07;100.00;101382.97;1739859;82;21057;-78
2021/11/15 02:13:21;;;;;;;133.27;64.15;;;;;;;4.05;100.00;101375.55;1740213;82;21210;-76
2021/11/15 02:15:48;;;;;;;132.10;63.25;;;;;;;4.06;100.00;101378.63;1746694;81;21098;-75
2021/11/15 02:18:16;;;;;;;132.15;64.27;;;;;;;4.07;100.00;101376.45;1770548;81;21045;-76
2021/11/15 02:20:59;;;;;;;136.10;65.05;;;;;;;4.08;100.00;101379.52;1770034;80;21626;-74
2021/11/15 02:23:30;;;;;;;132.95;65.22;;;;;;;4.07;100.00;101385.56;1769258;80;21583;-78
2021/11/15 02:25:57;;;;;;;137.67;63.23;;;;;;;4.02;100.00;101395.08;1770638;81;21737;-76
2021/11/15 02:28:30;;;;;;;134.80;63.80;;;;;;;3.97;100.00;101395.91;1770255;81;21353;-78
2021/11/15 02:30:57;;;;;;;129.03;61.40;;;;;;;3.96;100.00;101409.81;1770363;80;21084;-77
2021/11/15 02:33:23;;;;;;;130.15;60.95;;;;;;;3.96;100.00;101420.67;1770633;81;21050;-77
2021/11/15 02:35:51;;;;;;;132.50;61.95;;;;;;;3.95;100.00;101421.08;1771035;81;21011;-76
2021/11/15 02:38:18;;;;;;;126.20;59.67;;;;;;;3.95;100.00;101433.24;1770907;80;21177;-76
2021/11/15 02:40:44;;;;;;;121.62;59.40;;;;;;;3.92;100.00;101435.39;1770786;81;21074;-76
2021/11/15 02:43:10;;;;;;;135.78;62.80;;;;;;;3.93;100.00;101433.25;1773697;81;20991;-77
2021/11/15 02:45:37;;;;;;;132.90;62.00;;;;;;;3.95;100.00;101438.45;1775024;81;20955;-77
2021/11/15 02:48:04;;;;;;;133.30;62.33;;;;;;;3.94;100.00;101442.80;1774995;81;20940;-76
2021/11/15 02:50:31;;;;;;;134.12;64.70;;;;;;;3.97;100.00;101445.42;1772991;81;21104;-77
2021/11/15 02:53:02;;;;;;;135.85;65.97;;;;;;;3.98;100.00;101444.59;1772662;81;21575;-76
2021/11/15 02:55:29;;;;;;;147.02;69.80;;;;;;;3.98;100.00;101441.98;1771976;81;21052;-79
2021/11/15 02:57:55;;;;;;;132.63;65.03;;;;;;;3.99;100.00;101442.85;1771920;81;21034;-81
2021/11/15 03:00:36;;;;;;;134.90;65.90;;;;;;;4.01;100.00;101446.78;1770807;80;21072;-79
2021/11/15 03:03:03;;;;;;;134.27;65.32;;;;;;;4.02;100.00;101449.83;1770557;81;23276;-79
2021/11/15 03:05:32;;;;;;;134.60;63.63;;;;;;;3.99;100.00;101447.63;1770376;81;21030;-77
2021/11/15 03:08:00;;;;;;;133.90;63.68;;;;;;;4.03;100.00;101443.77;1774536;80;21092;-77
2021/11/15 03:10:27;;;;;;;124.80;60.23;;;;;;;4.06;100.00;101446.41;1778561;80;21041;-79
2021/11/15 03:12:54;;;;;;;126.35;60.40;;;;;;;4.08;100.00;101452.52;1778570;80;21566;-78
2021/11/15 03:15:28;;;;;;;125.47;60.17;;;;;;;4.08;100.00;101455.12;1777692;80;21488;-76
2021/11/15 03:18:00;;;;;;;124.55;57.98;;;;;;;4.08;100.00;101462.94;1747689;82;21031;-76
2021/11/15 03:20:31;;;;;;;128.25;59.58;;;;;;;4.08;100.00;101465.55;1746069;82;21058;-77
2021/11/15 03:22:58;;;;;;;124.62;59.63;;;;;;;4.06;100.00;101463.34;1747626;82;21058;-78
2021/11/15 03:25:28;;;;;;;108.60;56.13;;;;;;;4.07;100.00;101462.47;1748000;82;21074;-75
2021/11/15 03:27:55;;;;;;;114.35;57.03;;;;;;;4.08;100.00;101466.84;1747771;82;21105;-77
2021/11/15 03:30:22;;;;;;;120.80;59.13;;;;;;;4.10;100.00;101472.52;1747755;80;21506;-77
2021/11/15 03:32:48;;;;;;;118.90;57.15;;;;;;;4.12;100.00;101476.46;1747625;82;21161;-76
2021/11/15 03:35:15;;;;;;;125.72;59.77;;;;;;;4.11;100.00;101476.00;1747755;82;21015;-78
2021/11/15 03:37:42;;;;;;;113.50;54.58;;;;;;;4.11;100.00;101470.78;1747479;82;21105;-77
2021/11/15 03:40:14;;;;;;;116.08;56.08;;;;;;;4.12;100.00;101482.98;1747391;82;22109;-79
2021/11/15 03:42:42;;;;;;;111.55;55.85;;;;;;;4.11;100.00;101481.21;1747653;82;21093;-79
2021/11/15 03:45:10;;;;;;;111.28;55.20;;;;;;;4.10;100.00;101488.60;1747786;82;21040;-80
2021/11/15 03:47:37;;;;;;;110.70;54.67;;;;;;;4.10;100.00;101485.56;1747715;82;21042;-80
2021/11/15 03:50:05;;;;;;;107.03;52.03;;;;;;;4.12;100.00;101484.28;1748090;82;21059;-80
2021/11/15 03:52:33;;;;;;;87.53;44.15;;;;;;;4.12;100.00;101486.89;1747698;82;21552;-80
2021/11/15 03:54:59;;;;;;;97.57;48.42;;;;;;;4.14;100.00;101491.26;1747849;82;21121;-78
2021/11/15 03:57:25;;;;;;;90.75;46.60;;;;;;;4.15;100.00;101493.43;1747518;80;21019;-77
2021/11/15 03:59:52;;;;;;;95.17;48.73;;;;;;;4.19;100.00;101500.44;1747382;82;21118;-80
2021/11/15 04:02:21;;;;;;;107.52;52.73;;;;;;;4.20;100.00;101494.34;1747502;82;22214;-80
2021/11/15 04:04:51;;;;;;;102.87;50.60;;;;;;;4.23;100.00;101502.19;1747370;82;21102;-79
2021/11/15 04:07:28;;;;;;;88.25;45.67;;;;;;;4.22;100.00;101497.84;1744513;82;21074;-79
2021/11/15 04:09:56;;;;;;;103.80;51.33;;;;;;;4.24;100.00;101493.53;1713800;83;21003;-78
2021/11/15 04:12:23;;;;;;;115.45;51.90;;;;;;;4.22;100.00;101491.77;1679581;85;22181;-80
2021/11/15 04:14:51;;;;;;;113.97;54.40;;;;;;;4.20;100.00;101496.52;1685345;84;21067;-82
2021/11/15 04:17:19;;;;;;;113.30;52.83;;;;;;;4.15;100.00;101494.30;1687442;83;21121;-81
2021/11/15 04:19:47;;;;;;;111.80;51.63;;;;;;;4.13;100.00;101500.36;1695298;83;21121;-78
2021/11/15 04:22:14;;;;;;;106.47;50.28;;;;;;;4.12;100.00;101497.31;1699376;83;21067;-79
2021/11/15 04:24:41;;;;;;;102.58;50.52;;;;;;;4.12;100.00;101501.23;1710738;83;21117;-78
2021/11/15 04:27:09;;;;;;;94.92;47.05;;;;;;;4.12;100.00;101503.84;1698253;84;21654;-84
2021/11/15 04:29:36;;;;;;;103.40;49.38;;;;;;;4.09;100.00;101498.56;1699273;84;21146;-81
2021/11/15 04:32:05;;;;;;;97.80;46.95;;;;;;;4.08;100.00;101502.05;1699195;84;21044;-79
2021/11/15 04:34:33;;;;;;;89.25;45.35;;;;;;;4.09;100.00;101510.30;1699087;84;21053;-78
2021/11/15 04:37:00;;;;;;;94.35;48.08;;;;;;;4.07;100.00;101517.22;1699490;84;21027;-89
2021/11/15 04:39:28;;;;;;;91.42;44.65;;;;;;;4.06;100.00;101514.18;1699762;84;21057;-81
2021/11/15 04:41:54;;;;;;;93.80;47.10;;;;;;;4.05;100.00;101517.63;1699510;84;21030;-78
2021/11/15 04:44:20;;;;;;;97.20;44.53;;;;;;;4.06;100.00;101522.00;1699518;84;21077;-82
2021/11/15 04:46:47;;;;;;;90.95;44.73;;;;;;;4.04;100.00;101534.14;1699717;84;21011;-79
2021/11/15 04:49:13;;;;;;;92.17;45.03;;;;;;;4.04;100.00;101526.32;1695092;84;21081;-78
2021/11/15 04:51:40;;;;;;;87.02;43.30;;;;;;;4.04;100.00;101540.66;1732194;82;21026;-79
2021/11/15 04:54:07;;;;;;;82.10;42.13;;;;;;;4.05;100.00;101537.18;1760320;81;22063;-78
2021/11/15 04:56:33;;;;;;;88.90;44.83;;;;;;;4.07;100.00;101536.77;1762945;81;21058;-81
2021/11/15 04:59:00;;;;;;;90.28;44.85;;;;;;;4.03;100.00;101540.22;1762943;81;21021;-79
2021/11/15 05:01:26;;;;;;;91.00;45.30;;;;;;;4.02;100.00;101542.36;1753467;81;21054;-80
2021/11/15 05:03:53;;;;;;;86.32;43.58;;;;;;;4.03;100.00;101538.92;1754346;81;21081;-80
2021/11/15 05:06:19;;;;;;;94.40;45.73;;;;;;;4.02;100.00;101530.64;1747817;81;21038;-81
2021/11/15 05:08:46;;;;;;;89.75;44.63;;;;;;;4.04;100.00;101549.34;1755159;81;21069;-79
2021/11/15 05:11:13;;;;;;;86.22;43.42;;;;;;;4.02;100.00;101541.93;1748578;81;20999;-77
2021/11/15 05:13:40;;;;;;;84.77;43.70;;;;;;;4.02;100.00;101554.09;1766017;81;21046;-79
2021/11/15 05:16:07;;;;;;;90.30;43.70;;;;;;;3.99;100.00;101554.50;1740204;82;21120;-79
2021/11/15 05:18:33;;;;;;;84.15;42.50;;;;;;;4.01;100.00;101560.18;1740025;82;21569;-80
2021/11/15 05:20:59;;;;;;;86.82;43.00;;;;;;;3.99;100.00;101561.02;1740096;82;21104;-81
2021/11/15 05:23:27;;;;;;;87.00;42.40;;;;;;;4.00;100.00;101577.53;1742586;81;21014;-79
2021/11/15 05:25:53;;;;;;;80.17;41.28;;;;;;;4.01;100.00;101577.99;1740931;81;21097;-79
2021/11/15 05:28:20;;;;;;;86.92;43.17;;;;;;;4.02;100.00;101584.94;1739902;82;21162;-78
2021/11/15 05:30:46;;;;;;;83.10;41.15;;;;;;;4.02;100.00;101589.29;1757028;80;21519;-80
2021/11/15 05:33:13;;;;;;;85.72;41.58;;;;;;;3.98;100.00;101599.69;1775767;80;21055;-80
2021/11/15 05:35:39;;;;;;;78.65;40.85;;;;;;;3.95;100.00;101598.32;1769715;80;21132;-79
2021/11/15 05:38:06;;;;;;;74.82;38.55;;;;;;;3.94;100.00;101607.02;1773973;80;21053;-79
2021/11/15 05:40:34;;;;;;;77.85;40.20;;;;;;;3.94;100.00;101607.02;1770443;80;21107;-79
2021/11/15 05:43:00;;;;;;;84.00;40.80;;;;;;;3.93;100.00;101609.19;1758880;80;21132;-79
2021/11/15 05:45:27;;;;;;;74.25;38.55;;;;;;;3.91;100.00;101609.58;1753418;80;21061;-81
2021/11/15 05:47:54;;;;;;;77.62;40.15;;;;;;;3.92;100.00;101608.72;1754221;79;21018;-79
2021/11/15 05:50:21;;;;;;;82.88;39.35;;;;;;;3.92;100.00;101608.72;1765351;80;21713;-79
2021/11/15 05:52:48;;;;;;;74.12;38.88;;;;;;;3.92;100.00;101613.93;1751305;80;21014;-79
2021/11/15 05:55:18;;;;;;;73.57;39.60;;;;;;;3.92;100.00;101616.53;1750706;80;21152;-80
2021/11/15 05:57:45;;;;;;;78.02;40.30;;;;;;;3.96;100.00;101623.98;1753946;81;21162;-81
2021/11/15 06:00:15;;;;;;;79.80;40.55;;;;;;;3.97;100.00;101625.28;1739963;82;21058;-78
2021/11/15 06:02:42;;;;;;;69.62;36.08;;;;;;;3.99;100.00;101628.80;1749093;80;21045;-81
2021/11/15 06:05:09;;;;;;;78.33;39.48;;;;;;;3.98;100.00;101627.06;1759332;79;21089;-80
2021/11/15 06:07:35;;;;;;;70.90;39.50;;;;;;;4.01;100.00;101631.44;1755916;79;21152;-81
2021/11/15 06:10:05;;;;;;;80.80;36.90;;;;;;;4.02;100.00;101633.61;1767032;79;21071;-80
2021/11/15 06:12:32;;;;;;;79.30;38.77;;;;;;;4.01;100.00;101627.95;1758249;80;21050;-78
2021/11/15 06:14:58;;;;;;;69.30;35.38;;;;;;;3.99;100.00;101635.31;1760900;79;21874;-79
2021/11/15 06:17:25;;;;;;;68.83;35.75;;;;;;;4.00;100.00;101642.70;1764958;79;21057;-77
2021/11/15 06:19:52;;;;;;;69.32;36.90;;;;;;;4.01;100.00;101640.99;1763049;79;21941;-79
2021/11/15 06:24:22;;;;;;;59.60;32.23;;;;;;;4.11;100.00;101637.64;1793394;78;26564;-80
2021/11/15 06:26:48;;;;;;;64.90;34.18;;;;;;;4.08;100.00;101645.00;1765901;80;21016;-80
2021/11/15 06:29:14;;;;;;;57.20;30.43;;;;;;;4.11;100.00;101650.68;1769842;79;22152;-81
2021/11/15 06:31:41;;;;;;;66.35;33.90;;;;;;;4.16;100.00;101649.00;1771583;80;21072;-79
2021/11/15 06:34:10;;;;;;;64.53;33.73;;;;;;;4.20;100.00;101648.20;1763872;80;20969;-81
2021/11/15 06:36:37;;;;;;;71.55;35.75;;;;;;;4.22;100.00;101656.05;1769710;80;21049;-81
2021/11/15 06:39:04;;;;;;;69.27;32.75;;;;;;;4.23;100.00;101657.78;1781085;80;21044;-79
2021/11/15 06:41:30;;;;;;;57.08;30.40;;;;;;;4.25;100.00;101658.25;1786967;80;21555;-80
2021/11/15 06:43:57;;;;;;;72.05;33.88;;;;;;;4.30;100.00;101661.83;1774771;80;21266;-81
2021/11/15 06:46:23;;;;;;;74.92;36.77;;;;;;;4.33;100.00;101661.86;1768348;80;21049;-79
2021/11/15 06:48:50;;;;;;;71.87;36.65;;;;;;;4.35;100.00;101665.36;1749989;80;21741;-82
2021/11/15 06:51:16;;;;;;;64.40;33.95;;;;;;;4.38;100.00;101672.34;1771728;80;21030;-82
2021/11/15 06:53:45;;;;;;;68.40;34.85;;;;;;;4.40;100.00;101675.42;1765499;80;21108;-83
2021/11/15 06:56:11;;;;;;;63.38;33.75;;;;;;;4.41;100.00;101679.77;1774608;78;21599;-84
2021/11/15 06:58:38;;;;;;;64.12;32.83;;;;;;;4.45;100.00;101683.74;1778217;80;21084;-84
2021/11/15 07:01:05;;;;;;;64.45;34.13;;;;;;;4.48;100.00;101691.59;1768017;80;21073;-83
2021/11/15 07:03:32;;;;;;;68.65;34.92;;;;;;;4.49;100.00;101689.45;1760452;80;21729;-80
2021/11/15 07:05:59;;;;;;;70.45;37.10;;;;;;;4.50;100.00;101690.76;1772968;80;21119;-81
2021/11/15 07:08:26;;;;;;;65.42;32.85;;;;;;;4.52;100.00;101694.70;1768425;80;21065;-81
2021/11/15 07:10:53;;;;;;;67.08;33.38;;;;;;;4.54;100.00;101694.30;1770761;80;21457;-82
2021/11/15 07:13:21;;;;;;;59.58;32.67;;;;;;;4.59;100.00;101701.75;1761109;80;21013;-83
2021/11/15 07:15:49;;;;;;;61.77;31.60;;;;;;;4.61;100.00;101707.42;1761747;80;20986;-83
2021/11/15 07:18:16;;;;;;;59.90;31.02;;;;;;;4.65;100.00;101709.66;1769901;80;21181;-82
2021/11/15 07:20:43;;;;;;;60.05;31.25;;;;;;;4.75;100.00;101713.25;1766696;80;21543;-80
2021/11/15 07:23:10;;;;;;;65.65;32.00;;;;;;;4.87;100.00;101714.70;1771982;80;21069;-81
2021/11/15 07:25:37;;;;;;;60.98;31.05;;;;;;;4.99;100.00;101719.18;1761469;80;21024;-82
2021/11/15 07:28:05;;;;;;;61.65;32.38;;;;;;;5.12;100.00;101717.16;1753944;80;21038;-79
2021/11/15 07:30:32;;;;;;;61.37;30.60;;;;;;;5.25;100.00;101721.66;1763268;80;21134;-82
2021/11/15 07:33:00;;;;;;;60.75;30.32;;;;;;;5.44;100.00;101727.06;1761255;80;21060;-82
2021/11/15 07:35:27;;;;;;;63.92;32.30;;;;;;;5.60;100.00;101735.48;1756533;80;21093;-82
2021/11/15 07:37:53;;;;;;;58.40;32.13;;;;;;;5.86;100.00;101737.01;1758173;80;21575;-83
2021/11/15 07:40:20;;;;;;;64.23;32.57;;;;;;;6.09;100.00;101731.98;1753515;80;21101;-82
2021/11/15 07:42:46;;;;;;;63.10;33.10;;;;;;;6.29;100.00;101736.48;1762976;80;21619;-82
2021/11/15 07:45:13;;;;;;;60.55;32.67;;;;;;;6.58;100.00;101741.91;1763446;80;21044;-83
2021/11/15 07:47:41;;;;;;;63.80;31.55;;;;;;;7.03;100.00;101736.40;1742809;80;21088;-81
2021/11/15 07:50:09;;;;;;;56.70;29.30;;;;;;;7.61;98.11;101736.08;1761591;80;21038;-83
2021/11/15 07:52:36;;;;;;;55.00;28.32;;;;;;;8.05;92.40;101739.14;1758146;79;21068;-82
2021/11/15 07:55:06;;;;;;;52.30;27.20;;;;;;;8.32;88.99;101742.17;1764035;79;21540;-82
2021/11/15 07:57:34;;;;;;;52.15;29.60;;;;;;;8.67;85.93;101747.35;1760266;80;21095;-81
2021/11/15 08:00:00;;;;;;;54.30;28.52;;;;;;;9.18;85.30;101748.48;1767116;80;21041;-80
2021/11/15 08:02:30;;;;;;;47.77;27.40;;;;;;;9.60;82.07;101748.63;1752242;80;21044;-82
2021/11/15 08:04:57;;;;;;;49.75;27.00;;;;;;;10.01;78.79;101746.57;1753938;80;21676;-81
2021/11/15 08:07:23;;;;;;;39.27;23.30;;;;;;;10.28;76.03;101755.56;1758615;79;21106;-81
2021/11/15 08:09:50;;;;;;;43.38;26.15;;;;;;;10.47;76.15;101749.65;1760287;80;21047;-80
2021/11/15 08:12:17;;;;;;;41.58;25.75;;;;;;;10.80;73.23;101754.55;1715345;82;21026;-82
2021/11/15 08:14:43;;;;;;;49.77;29.72;;;;;;;10.83;72.72;101758.00;1725793;80;21504;-81
2021/11/15 08:17:12;;;;;;;52.80;28.55;;;;;;;10.88;70.50;101763.22;1764688;80;22183;-82
2021/11/15 08:19:42;;;;;;;46.98;27.42;;;;;;;10.70;69.86;101770.47;1765739;80;21091;-83
2021/11/15 08:22:09;;;;;;;46.35;28.40;;;;;;;10.60;68.77;101774.08;1760426;80;21693;-81
2021/11/15 08:24:59;;;;;;;40.80;25.72;;;;;;;10.33;69.48;101777.00;1762831;80;21037;-82
2021/11/15 08:27:25;;;;;;;53.65;28.95;;;;;;;10.18;70.72;101768.78;1752217;80;21578;-82
2021/11/15 08:29:55;;;;;;;47.48;28.27;;;;;;;10.59;71.38;101771.03;1759245;80;21060;-82
2021/11/15 08:32:24;;;;;;;49.38;30.62;;;;;;;10.89;70.51;101767.62;1753256;80;21688;-82
2021/11/15 08:34:52;;;;;;;50.85;29.27;;;;;;;11.11;68.49;101771.73;1763514;80;21033;-82
2021/11/15 08:37:19;;;;;;;46.85;27.45;;;;;;;11.21;67.95;101782.16;1762800;79;21144;-81
2021/11/15 08:39:45;;;;;;;53.98;29.87;;;;;;;11.21;67.20;101788.75;1762715;80;21062;-83
2021/11/15 08:42:12;;;;;;;44.55;27.87;;;;;;;11.29;66.82;101790.83;1756860;80;21073;-83
2021/11/15 08:44:41;;;;;;;46.95;29.07;;;;;;;11.53;65.71;101789.17;1753633;80;22273;-81
2021/11/15 08:47:06;;;;;;;49.25;30.00;;;;;;;11.86;64.51;101790.00;1773095;80;21057;-82
2021/11/15 08:49:33;;;;;;;44.65;26.40;;;;;;;12.02;62.30;101796.81;1773263;80;21049;-82
2021/11/15 08:52:01;;;;;;;46.70;29.02;;;;;;;11.83;63.22;101796.20;1773291;80;21021;-83
2021/11/15 08:54:28;;;;;;;52.10;30.00;;;;;;;11.42;62.30;101804.28;1768617;80;21088;-85
2021/11/15 08:57:00;;;;;;;53.95;31.35;;;;;;;11.06;63.48;101797.27;1689854;84;21113;-83
2021/11/15 08:59:26;;;;;;;52.80;31.45;;;;;;;10.54;64.83;101805.78;1761962;80;21025;-83
2021/11/15 09:01:53;;;;;;;52.67;31.07;;;;;;;9.95;66.51;101801.43;1752782;80;21563;-81
2021/11/15 09:04:21;;;;;;;58.33;32.50;;;;;;;9.45;68.79;101807.48;1757688;80;21025;-82
2021/11/15 09:06:47;;;;;;;56.95;31.30;;;;;;;9.11;69.90;101804.55;1691083;84;21124;-81
2021/11/15 09:09:15;;;;;;;57.70;33.38;;;;;;;8.74;70.44;101800.33;1759969;80;21504;-82
2021/11/15 09:11:51;;;;;;;57.58;32.17;;;;;;;8.41;71.92;101802.56;1759151;80;21092;-82
2021/11/15 09:14:20;;;;;;;63.73;31.75;;;;;;;7.95;73.52;101808.66;1763612;80;20969;-81
2021/11/15 09:16:46;;;;;;;56.68;30.02;;;;;;;7.44;75.30;101808.16;1770559;80;21033;-80
2021/11/15 09:19:15;;;;;;;59.65;30.12;;;;;;;7.02;77.25;101812.38;1757137;80;21049;-79
2021/11/15 09:21:41;;;;;;;63.10;32.75;;;;;;;6.66;79.44;101817.41;1771922;80;22153;-82
2021/11/15 09:24:07;;;;;;;58.80;31.65;;;;;;;6.35;80.90;101820.27;1755572;80;21103;-81
2021/11/15 09:26:35;;;;;;;59.73;30.08;;;;;;;6.04;82.66;101822.63;1753874;80;21024;-82
2021/11/15 09:29:02;;;;;;;53.60;28.15;;;;;;;5.76;83.99;101831.05;1759809;80;21124;-82
2021/11/15 09:31:31;;;;;;;57.38;29.98;;;;;;;5.60;85.54;101840.03;1764370;80;21017;-81
2021/11/15 09:33:57;;;;;;;59.03;30.23;;;;;;;5.41;85.79;101838.95;1761370;80;21127;-80
2021/11/15 09:36:24;;;;;;;53.23;28.60;;;;;;;5.18;86.88;101840.42;1769493;80;21057;-80
2021/11/15 09:38:57;;;;;;;55.78;31.27;;;;;;;5.02;87.91;101839.34;1693576;83;21109;-80
2021/11/15 09:41:25;;;;;;;66.55;31.42;;;;;;;4.92;89.85;101836.15;1694484;84;21148;-81
2021/11/15 09:43:52;;;;;;;60.23;30.85;;;;;;;4.81;90.75;101837.33;1701782;83;21054;-76
2021/11/15 09:46:23;;;;;;;60.03;28.87;;;;;;;4.75;91.77;101835.49;1724950;82;21069;-78
2021/11/15 09:49:02;;;;;;;62.45;32.28;;;;;;;4.69;92.81;101845.83;1717043;82;21312;-78
2021/11/15 09:51:26;;;;;;;65.85;30.55;;;;;;;4.60;93.46;101849.61;1710730;82;21125;-81
2021/11/15 09:53:53;;;;;;;59.50;30.27;;;;;;;4.50;93.47;101848.59;1725992;82;21041;-83
2021/11/15 09:56:20;;;;;;;65.75;31.77;;;;;;;4.35;94.35;101855.77;1716715;83;21078;-84
2021/11/15 09:58:46;;;;;;;63.55;28.17;;;;;;;4.19;95.21;101857.25;1708130;84;21095;-75
2021/11/15 10:01:13;;;;;;;54.50;27.52;;;;;;;4.09;95.24;101863.57;1685263;84;21122;-80
2021/11/15 10:03:41;;;;;;;58.75;27.98;;;;;;;4.04;96.32;101855.67;1762164;80;21615;-78
2021/11/15 10:06:08;;;;;;;61.08;29.35;;;;;;;4.02;96.70;101869.53;1762839;80;20986;-80
2021/11/15 10:08:57;;;;;;;53.65;26.42;;;;;;;3.98;96.89;101872.09;1761713;80;21574;-79
2021/11/15 10:11:27;;;;;;;60.65;29.87;;;;;;;3.89;96.71;101869.33;1764451;80;21778;-79
2021/11/15 10:13:56;;;;;;;68.70;32.08;;;;;;;3.79;97.28;101875.20;1758374;80;21061;-79
2021/11/15 10:16:26;;;;;;;75.20;32.93;;;;;;;3.67;98.29;101879.76;1758258;80;22186;-82
2021/11/15 10:19:02;;;;;;;70.90;32.98;;;;;;;3.54;99.53;101881.66;1768976;80;21048;-82
2021/11/15 10:21:37;;;;;;;63.73;31.68;;;;;;;3.41;100.00;101883.16;1753474;80;21029;-82
2021/11/15 10:24:34;;;;;;;65.42;30.88;;;;;;;3.32;100.00;101888.18;1750887;79;21102;-82
2021/11/15 10:27:12;;;;;;;56.40;27.82;;;;;;;3.30;100.00;101890.73;1664501;83;21098;-91
2021/11/15 10:29:41;;;;;;;61.35;29.98;;;;;;;3.26;100.00;101901.06;1625541;87;21122;-91
2021/11/15 10:32:22;;;;;;;62.83;29.15;;;;;;;3.12;100.00;101909.44;1666063;86;21079;-92
2021/11/15 10:34:55;;;;;;;64.17;29.57;;;;;;;2.99;100.00;101918.25;1646082;86;21059;-90
2021/11/15 10:37:27;;;;;;;60.10;30.30;;;;;;;2.92;100.00;101919.83;1660886;86;21289;-89
2021/11/15 10:40:06;;;;;;;;;;;;;;;2.88;100.00;101924.53;1657505;85;21132;-92
2021/11/15 10:42:46;;;;;;;60.17;27.93;;;;;;;2.81;100.00;101919.60;1657375;86;20202;-93
2021/11/15 10:45:19;;;;;;;66.07;32.37;;;;;;;2.71;100.00;101925.02;1670332;84;21850;-90
2021/11/15 10:47:57;;;;;;;68.10;31.75;;;;;;;2.57;100.00;101925.51;1656919;85;21105;-92
2021/11/15 10:50:31;;;;;;;78.90;35.58;;;;;;;2.40;100.00;101928.57;1657271;85;21874;-89
2021/11/15 10:53:08;;;;;;;66.75;31.77;;;;;;;2.28;100.00;101925.24;1657958;86;20978;-90
2021/11/15 10:55:45;;;;;;;70.97;32.78;;;;;;;2.19;100.00;101934.10;1660827;84;21045;-90
2021/11/15 10:58:17;;;;;;;63.50;32.05;;;;;;;2.16;100.00;101935.30;1699377;84;21042;-89
2021/11/15 11:00:56;;;;;;;70.00;33.02;;;;;;;2.17;100.00;101936.20;1698792;84;21062;-89
2021/11/15 11:03:21;;;;;;;64.45;30.12;;;;;;;2.17;100.00;101937.50;1691356;82;21171;-91
2021/11/15 11:05:55;;;;;;;65.65;32.00;;;;;;;2.21;100.00;101942.83;1697811;82;20947;-88
2021/11/15 11:08:27;;;;;;;62.25;30.97;;;;;;;2.25;100.00;101947.23;1698255;82;20994;-90
2021/11/15 11:11:07;;;;;;;66.67;30.55;;;;;;;2.25;100.00;101947.23;1692224;82;21010;-92
2021/11/15 11:14:04;;;;;;;66.80;30.55;;;;;;;2.16;100.00;101947.00;1691419;83;21037;-93
2021/11/15 11:16:46;;;;;;;60.80;28.05;;;;;;;2.16;100.00;101947.00;1678388;83;21086;-92